الصفحة الرئيسية
METAR-TAF:

METAR-TAF

مطار :

سنغافورة, سنغافورة

مطار شانغي سنغافورة

دائرة عرض: 01-22N, خط طول: 103-59E, ارتفاع: 5 متر

مراقبة الطقس الحالي

تاريخ ووقت الإصدار 11 دقيقة قبل الساعة 16:00UTC
ريح 2 عقدةمن اتجاهات متغيرة
درجة الحرارة 28°درجة مئوية
الرطوبة 89%
ضغط 1009 hPa
الرؤية 10 كم أو أكثر
غيوم قليلة على ارتفاع 1600 قدم
غيوم متفرقة على ارتفاع 15000 قدم
غيوم مفككة على ارتفاع 30000 قدم

METAR: WSSS 221600Z VRB02KT 9999 FEW016 SCT150 BKN300 28/26 Q1009 NOSIG

زمن: 00:11 (16:11 UTC)

توقعات

تاريخ ووقت الإصدار 5ساعات و 11 دقيقة قبل الساعة 11:00UTC
التوقعات صالحة من22 الساعة 12 UTC إلى 23 الساعة 18 UTC
ريح 7 عقدة من الشمال/الشمال الشرقي
الرؤية 10 كم أو أكثر
غيوم قليلة على ارتفاع 1800 قدم, مزنة ركامية.
غيوم متفرقة على ارتفاع 2000 قدم
مؤقت
من 23 الساعة 03 UTC إلى 23 الساعة 08 UTC
الرؤية: 3000 متر
غيوم قليلة على ارتفاع 1200 قدم, مزنة ركامية.
غيوم مفككة على ارتفاع 1500 قدم
عاصفة رعدية, مطر

TAF: WSSS 221100Z 2212/2318 03007KT 9999 FEW018CB SCT020 TEMPO 2303/2308 3000 TSRA FEW012CB BKN015

أرصاد الطقس والتوقعات من أكثر من 4000 مطار (تقارير الطقس للمطار METAR والتنبؤ بالطقس بالمطارTAF).

المحطات المتاحة هي النقط الصفراء والحمراء على الخريطة.

حرك المؤشر فوق النقطة لمعرفة اسم المحطة.

ثم انقر لمعرفة أرصاد وتوقعات الطقس.

لتغيير الخارطة: اضغط على الأزرار الخضراء مع رمز الصليب الأسود للتكبير. على الزر الأخضر مع شرطة للتصغير، أو على الأسهم الخضراء للخرائط المجاورة.


METAR-TAF: